createdAt,value
2023-06-23T00:01:51.507Z,1.50
2023-06-23T00:04:20.905Z,1.20
2023-06-23T00:06:48.872Z,1.30
2023-06-23T00:09:16.832Z,1.58
2023-06-23T00:11:45.027Z,1.42
2023-06-23T00:14:13.911Z,1.42
2023-06-23T00:16:41.991Z,1.05
2023-06-23T00:19:10.060Z,1.33
2023-06-23T00:21:38.570Z,1.40
2023-06-23T00:24:06.965Z,1.55
2023-06-23T00:26:35.729Z,1.20
2023-06-23T00:29:06.499Z,1.40
2023-06-23T00:34:03.157Z,1.15
2023-06-23T00:36:32.269Z,1.35
2023-06-23T00:39:03.931Z,1.23
2023-06-23T00:41:31.972Z,1.23
2023-06-23T00:44:00.523Z,1.10
2023-06-23T00:46:29.472Z,1.40
2023-06-23T00:48:57.607Z,1.13
2023-06-23T00:51:27.307Z,1.27
2023-06-23T00:53:55.940Z,1.50
2023-06-23T00:56:25.733Z,1.35
2023-06-23T00:58:55.962Z,1.33
2023-06-23T01:01:24.108Z,1.67
2023-06-23T01:03:52.182Z,1.42
2023-06-23T01:06:29.280Z,1.38
2023-06-23T01:09:32.863Z,1.60
2023-06-23T01:12:27.003Z,1.80
2023-06-23T01:14:59.536Z,2.20
2023-06-23T01:17:33.409Z,2.25
2023-06-23T01:20:22.752Z,2.38
2023-06-23T01:23:25.242Z,2.58
2023-06-23T01:28:50.005Z,1.63
2023-06-23T01:31:32.981Z,2.25
2023-06-23T01:34:05.171Z,1.73
2023-06-23T01:36:50.653Z,2.85
2023-06-23T01:39:21.141Z,2.00
2023-06-23T01:41:58.237Z,2.47
2023-06-23T01:44:30.808Z,1.88
2023-06-23T01:47:02.076Z,2.10
2023-06-23T01:49:37.940Z,2.17
2023-06-23T01:52:10.629Z,2.40
2023-06-23T01:54:41.936Z,2.20
2023-06-23T01:57:13.481Z,2.88
2023-06-23T02:02:26.808Z,2.42
2023-06-23T02:04:57.382Z,2.65
2023-06-23T02:07:26.006Z,2.42
2023-06-23T02:09:54.636Z,2.85
2023-06-23T02:12:22.812Z,2.85
2023-06-23T02:14:51.322Z,3.20
2023-06-23T02:17:19.876Z,2.67
2023-06-23T02:19:50.326Z,3.05
2023-06-23T02:22:25.245Z,3.50
2023-06-23T02:24:53.743Z,2.70
2023-06-23T02:27:22.954Z,3.15
2023-06-23T02:29:51.571Z,3.42
2023-06-23T02:32:19.880Z,3.10
2023-06-23T02:34:49.130Z,2.95
2023-06-23T02:37:21.611Z,3.77
2023-06-23T02:40:16.542Z,3.97
2023-06-23T02:43:03.826Z,3.92
2023-06-23T02:45:36.853Z,3.33
2023-06-23T02:48:09.380Z,3.80
2023-06-23T02:50:38.086Z,3.90
2023-06-23T02:53:10.743Z,3.95
2023-06-23T02:55:41.299Z,3.75
2023-06-23T02:58:12.833Z,4.07
2023-06-23T03:00:41.039Z,3.78
2023-06-23T03:03:16.279Z,3.45
2023-06-23T03:05:45.047Z,4.07
2023-06-23T03:08:13.205Z,4.18
2023-06-23T03:10:42.915Z,3.72
2023-06-23T03:13:11.951Z,4.13
2023-06-23T03:15:41.172Z,3.53
2023-06-23T03:18:16.614Z,3.50
2023-06-23T03:20:50.770Z,3.60
2023-06-23T03:23:20.441Z,4.22
2023-06-23T03:25:49.927Z,3.72
2023-06-23T03:28:33.099Z,3.55
2023-06-23T03:31:10.365Z,3.78
2023-06-23T03:33:46.812Z,3.63
2023-06-23T03:36:33.900Z,2.88
2023-06-23T03:39:05.523Z,3.80
2023-06-23T03:41:34.127Z,3.17
2023-06-23T03:44:14.607Z,3.28
2023-06-23T03:46:57.358Z,3.47
2023-06-23T03:49:30.322Z,3.90
2023-06-23T03:52:00.691Z,3.70
2023-06-23T03:54:28.981Z,3.65
2023-06-23T03:56:57.515Z,3.20
2023-06-23T03:59:27.616Z,3.45
2023-06-23T04:05:41.408Z,3.58
2023-06-23T04:08:10.633Z,3.95
2023-06-23T04:10:40.081Z,3.97
2023-06-23T04:13:08.653Z,4.63
2023-06-23T04:15:39.371Z,3.90
2023-06-23T04:18:09.501Z,3.95
2023-06-23T04:20:38.669Z,3.93
2023-06-23T04:23:07.606Z,3.88
2023-06-23T04:25:35.878Z,4.60
2023-06-23T04:28:06.504Z,3.92
2023-06-23T04:30:36.397Z,4.65
2023-06-23T04:33:04.642Z,4.63
2023-06-23T04:35:32.856Z,4.47
2023-06-23T04:38:10.358Z,5.90
2023-06-23T04:40:58.490Z,5.13
2023-06-23T04:43:33.619Z,5.10
2023-06-23T04:46:15.511Z,4.75
2023-06-23T04:48:47.817Z,5.07
2023-06-23T04:51:17.998Z,5.15
2023-06-23T04:53:49.610Z,4.47
2023-06-23T04:56:21.573Z,5.40
2023-06-23T04:58:55.984Z,4.68
2023-06-23T05:01:24.473Z,5.07
2023-06-23T05:03:54.553Z,5.00
2023-06-23T05:06:24.214Z,5.97
2023-06-23T05:08:53.217Z,5.65
2023-06-23T05:11:22.832Z,5.60
2023-06-23T05:13:52.503Z,5.97
2023-06-23T05:16:21.467Z,5.43
2023-06-23T05:18:49.967Z,5.22
2023-06-23T05:21:19.834Z,5.28
2023-06-23T05:23:53.371Z,4.60
2023-06-23T05:26:23.160Z,4.55
2023-06-23T05:28:54.386Z,4.22
2023-06-23T05:31:24.907Z,4.38
2023-06-23T05:33:56.296Z,3.85
2023-06-23T05:38:53.687Z,2.63
2023-06-23T05:41:21.855Z,2.08
2023-06-23T05:43:49.875Z,2.03
2023-06-23T05:46:19.009Z,2.63
2023-06-23T05:48:56.568Z,2.00
2023-06-23T05:51:27.187Z,1.67
2023-06-23T05:53:57.588Z,1.92
2023-06-23T05:56:36.891Z,1.67
2023-06-23T05:59:08.841Z,1.20
2023-06-23T06:01:41.543Z,2.17
2023-06-23T06:04:15.565Z,1.30
2023-06-23T06:06:45.912Z,1.60
2023-06-23T06:09:15.424Z,1.30
2023-06-23T06:11:45.080Z,1.10
2023-06-23T06:14:13.360Z,1.15
2023-06-23T06:16:42.212Z,1.30
2023-06-23T06:19:11.050Z,1.30
2023-06-23T06:21:41.499Z,1.25
2023-06-23T06:24:11.533Z,0.95
2023-06-23T06:26:39.796Z,1.13
2023-06-23T06:29:08.046Z,1.08
2023-06-23T06:31:36.060Z,0.93
2023-06-23T06:34:04.933Z,1.00
2023-06-23T06:36:35.870Z,1.55
2023-06-23T06:39:04.319Z,1.05
2023-06-23T06:41:32.722Z,1.10
2023-06-23T06:44:00.996Z,1.42
2023-06-23T06:46:30.543Z,1.10
2023-06-23T06:48:59.061Z,1.00
2023-06-23T06:51:28.689Z,1.02
2023-06-23T06:53:56.908Z,0.70
2023-06-23T06:56:25.507Z,1.00
2023-06-23T06:58:53.849Z,0.95
2023-06-23T07:01:22.210Z,0.98
2023-06-23T07:03:50.677Z,0.93
2023-06-23T07:06:18.938Z,0.80
2023-06-23T07:08:46.920Z,0.60
2023-06-23T07:11:15.436Z,0.80
2023-06-23T07:13:43.622Z,0.60
2023-06-23T07:16:11.826Z,0.68
2023-06-23T07:18:40.089Z,0.60
2023-06-23T07:21:10.315Z,0.85
2023-06-23T07:23:39.512Z,1.00
2023-06-23T07:26:08.035Z,1.50
2023-06-23T07:28:36.417Z,0.90
2023-06-23T07:31:04.998Z,0.90
2023-06-23T07:33:33.385Z,0.70
2023-06-23T07:36:01.639Z,0.85
2023-06-23T07:38:30.079Z,0.98
2023-06-23T07:40:58.319Z,0.70
2023-06-23T07:43:28.042Z,0.80
2023-06-23T07:45:56.139Z,1.10
2023-06-23T07:48:24.383Z,1.13
2023-06-23T07:50:52.709Z,0.80
2023-06-23T07:53:24.040Z,0.77
2023-06-23T07:58:19.751Z,0.80
2023-06-23T08:00:47.748Z,0.98
2023-06-23T08:03:16.140Z,0.82
2023-06-23T08:05:44.323Z,0.88
2023-06-23T08:08:12.592Z,1.45
2023-06-23T08:10:41.886Z,1.10
2023-06-23T08:13:11.403Z,0.98
2023-06-23T08:15:39.759Z,1.45
2023-06-23T08:18:08.522Z,1.27
2023-06-23T08:20:36.768Z,0.85
2023-06-23T08:23:04.881Z,1.20
2023-06-23T08:25:34.340Z,1.40
2023-06-23T08:28:02.789Z,1.42
2023-06-23T08:30:33.439Z,1.50
2023-06-23T08:33:01.699Z,1.50
2023-06-23T08:35:30.437Z,1.40
2023-06-23T08:37:58.748Z,1.35
2023-06-23T08:40:26.614Z,1.35
2023-06-23T08:42:55.031Z,1.20
2023-06-23T08:45:26.322Z,1.15
2023-06-23T08:50:22.776Z,1.30
2023-06-23T08:52:50.925Z,1.42
2023-06-23T08:55:18.886Z,1.40
2023-06-23T08:57:49.880Z,1.88
2023-06-23T09:00:20.035Z,1.42
2023-06-23T09:02:48.311Z,1.50
2023-06-23T09:05:16.477Z,1.90
2023-06-23T09:07:44.930Z,1.30
2023-06-23T09:10:13.602Z,1.20
2023-06-23T09:13:09.735Z,1.50
2023-06-23T09:15:51.563Z,1.27
2023-06-23T09:18:26.305Z,1.10
2023-06-23T09:20:54.661Z,1.27
2023-06-23T09:23:24.304Z,1.38
2023-06-23T09:25:58.111Z,1.42
2023-06-23T09:28:29.210Z,1.20
2023-06-23T09:30:59.388Z,1.45
2023-06-23T09:33:28.486Z,1.20
2023-06-23T09:35:57.961Z,1.17
2023-06-23T09:38:27.435Z,1.30
2023-06-23T09:41:21.883Z,1.70
2023-06-23T09:43:57.744Z,1.63
2023-06-23T09:46:28.639Z,1.70
2023-06-23T09:48:56.890Z,1.30
2023-06-23T09:52:14.759Z,1.92
2023-06-23T09:59:43.211Z,1.60
2023-06-23T10:06:40.745Z,1.77
2023-06-23T10:09:11.308Z,2.10
2023-06-23T10:11:41.715Z,2.50
2023-06-23T10:14:12.970Z,1.92
2023-06-23T10:16:44.755Z,1.63
2023-06-23T10:19:17.019Z,2.17
2023-06-23T10:21:46.003Z,2.10
2023-06-23T10:24:19.889Z,1.95
2023-06-23T10:26:48.857Z,2.58
2023-06-23T10:29:17.186Z,2.40
2023-06-23T10:31:45.173Z,2.60
2023-06-23T10:34:14.576Z,2.28
2023-06-23T10:36:44.116Z,2.20
2023-06-23T10:39:12.622Z,2.50
2023-06-23T10:41:42.419Z,2.20
2023-06-23T10:44:10.851Z,1.92
2023-06-23T10:46:40.076Z,2.00
2023-06-23T10:49:09.498Z,2.10
2023-06-23T10:51:37.992Z,1.75
2023-06-23T10:54:09.246Z,2.28
2023-06-23T11:00:32.866Z,2.17
2023-06-23T11:03:01.416Z,1.70
2023-06-23T11:05:29.962Z,2.08
2023-06-23T11:08:06.117Z,2.20
2023-06-23T11:10:59.406Z,2.40
2023-06-23T11:13:57.749Z,3.22
2023-06-23T11:16:39.505Z,2.50
2023-06-23T11:20:36.843Z,2.78
2023-06-23T11:23:10.076Z,1.83
2023-06-23T11:25:46.176Z,2.20
2023-06-23T12:37:18.210Z,2.10
2023-06-23T12:39:56.548Z,2.25
2023-06-23T12:42:24.802Z,2.15
2023-06-23T12:44:52.885Z,2.63
2023-06-23T12:47:21.251Z,2.72
2023-06-23T12:49:52.507Z,2.53
2023-06-23T12:54:52.760Z,2.97
2023-06-23T12:57:21.738Z,2.80
2023-06-23T12:59:52.018Z,2.55
2023-06-23T13:02:20.689Z,2.90
2023-06-23T13:04:48.935Z,3.75
2023-06-23T13:07:17.154Z,3.05
2023-06-23T13:09:48.013Z,4.15
2023-06-23T13:12:16.872Z,3.05
2023-06-23T13:14:45.595Z,3.20
2023-06-23T13:17:13.511Z,3.53
2023-06-23T13:19:42.638Z,3.83
2023-06-23T13:22:10.773Z,3.17
2023-06-23T13:24:39.142Z,3.28
2023-06-23T13:27:09.939Z,3.45
2023-06-23T13:29:41.103Z,3.30
2023-06-23T13:34:38.029Z,3.10
2023-06-23T13:37:06.566Z,3.17
2023-06-23T13:39:36.259Z,3.65
2023-06-23T13:42:04.589Z,3.40
2023-06-23T13:44:32.200Z,3.92
2023-06-23T13:47:00.342Z,4.18
2023-06-23T13:49:28.533Z,3.47
2023-06-23T13:51:56.710Z,4.15
2023-06-23T13:54:25.015Z,3.78
2023-06-23T13:56:52.962Z,4.47
2023-06-23T13:59:20.938Z,4.00
2023-06-23T14:01:53.169Z,4.18
2023-06-23T14:04:21.742Z,4.18
2023-06-23T14:06:50.030Z,3.80
2023-06-23T14:09:18.887Z,3.35
2023-06-23T14:11:47.092Z,3.72
2023-06-23T14:14:15.276Z,3.95
2023-06-23T14:16:44.021Z,3.55
2023-06-23T14:19:11.917Z,3.35
2023-06-23T14:21:42.136Z,3.70
2023-06-23T14:24:10.196Z,4.23
2023-06-23T14:26:38.609Z,4.50
2023-06-23T14:29:06.892Z,3.70
2023-06-23T14:31:36.586Z,3.00
2023-06-23T14:34:05.224Z,3.30
2023-06-23T14:36:33.373Z,3.67
2023-06-23T14:39:01.308Z,3.83
2023-06-23T14:41:29.809Z,3.97
2023-06-23T14:43:58.448Z,3.83
2023-06-23T14:46:26.509Z,4.10
2023-06-23T14:48:54.227Z,3.28
2023-06-23T14:51:23.525Z,3.60
2023-06-23T14:53:51.827Z,4.22
2023-06-23T14:56:19.692Z,3.78
2023-06-23T14:58:47.547Z,4.35
2023-06-23T15:01:16.442Z,4.15
2023-06-23T15:03:44.640Z,4.93
2023-06-23T15:06:12.716Z,3.83
2023-06-23T15:08:41.202Z,4.43
2023-06-23T15:11:08.982Z,4.80
2023-06-23T15:13:39.475Z,4.63
2023-06-23T15:16:07.418Z,4.38
2023-06-23T15:18:35.693Z,4.78
2023-06-23T15:21:03.762Z,4.85
2023-06-23T15:23:31.710Z,5.05
2023-06-23T15:26:00.511Z,5.30
2023-06-23T15:28:32.604Z,5.63
2023-06-23T15:31:01.556Z,5.60
2023-06-23T15:33:30.640Z,4.25
2023-06-23T15:35:59.665Z,5.05
2023-06-23T15:38:27.838Z,4.63
2023-06-23T15:40:56.468Z,5.07
2023-06-23T15:43:24.639Z,4.88
2023-06-23T15:45:52.653Z,5.57
2023-06-23T15:48:21.258Z,5.03
2023-06-23T15:50:49.590Z,5.20
2023-06-23T15:53:17.904Z,5.13
2023-06-23T15:55:47.677Z,4.53
2023-06-23T15:58:16.356Z,5.93
2023-06-23T16:00:46.426Z,4.72
2023-06-23T16:03:14.649Z,5.30
2023-06-23T16:05:43.064Z,5.50
2023-06-23T16:08:14.386Z,6.63
2023-06-23T16:10:42.876Z,5.40
2023-06-23T16:13:11.576Z,4.97
2023-06-23T16:15:39.509Z,5.05
2023-06-23T16:18:10.154Z,5.25
2023-06-23T16:20:40.635Z,5.95
2023-06-23T16:23:08.800Z,4.78
2023-06-23T16:25:37.796Z,4.65
2023-06-23T16:28:07.759Z,5.90
2023-06-23T16:30:36.128Z,4.97
2023-06-23T16:33:04.552Z,5.50
2023-06-23T16:35:33.368Z,5.72
2023-06-23T16:38:01.860Z,5.35
2023-06-23T16:40:30.969Z,5.43
2023-06-23T16:43:01.880Z,5.97
2023-06-23T16:45:31.745Z,5.25
2023-06-23T16:48:01.017Z,6.30
2023-06-23T16:50:29.314Z,6.18
2023-06-23T16:52:59.121Z,5.93
2023-06-23T16:55:27.908Z,6.03
2023-06-23T16:57:57.184Z,5.78
2023-06-23T17:00:25.397Z,6.00
2023-06-23T17:02:53.897Z,5.25
2023-06-23T17:05:23.509Z,5.80
2023-06-23T17:07:53.144Z,5.25
2023-06-23T17:10:21.248Z,5.38
2023-06-23T17:12:50.083Z,4.72
2023-06-23T17:15:18.600Z,6.30
2023-06-23T17:17:47.453Z,5.40
2023-06-23T17:20:15.931Z,4.60
2023-06-23T17:22:44.565Z,5.00
2023-06-23T17:25:13.779Z,4.65
2023-06-23T17:27:42.489Z,5.28
2023-06-23T17:30:16.989Z,5.03
2023-06-23T17:32:44.972Z,5.30
2023-06-23T17:35:13.863Z,5.03
2023-06-23T17:37:43.120Z,5.05
2023-06-23T17:40:12.081Z,4.47
2023-06-23T17:42:39.991Z,4.63
2023-06-23T17:45:08.745Z,4.22
2023-06-23T17:47:36.744Z,3.70
2023-06-23T17:50:04.869Z,4.80
2023-06-23T17:52:32.782Z,4.80
2023-06-23T17:55:01.101Z,4.75
2023-06-23T17:57:29.250Z,4.30
2023-06-23T17:59:58.174Z,4.57
2023-06-23T18:02:26.216Z,4.85
2023-06-23T18:04:54.440Z,4.50
2023-06-23T18:07:22.886Z,4.18
2023-06-23T18:09:51.450Z,4.05
2023-06-23T18:12:19.366Z,4.05
2023-06-23T18:14:47.720Z,4.18
2023-06-23T18:17:15.661Z,4.00
2023-06-23T18:19:43.666Z,3.63
2023-06-23T18:22:11.586Z,3.72
2023-06-23T18:24:39.993Z,3.63
2023-06-23T18:27:08.500Z,3.67
2023-06-23T18:29:36.282Z,3.05
2023-06-23T18:32:14.270Z,3.30
2023-06-23T18:34:44.140Z,3.22
2023-06-23T18:37:12.531Z,3.25
2023-06-23T18:39:41.141Z,3.17
2023-06-23T18:42:10.138Z,3.15
2023-06-23T18:44:37.865Z,3.55
2023-06-23T18:47:06.112Z,3.78
2023-06-23T18:49:34.036Z,2.95
2023-06-23T18:52:02.398Z,3.20
2023-06-23T18:54:30.592Z,3.03
2023-06-23T18:56:59.703Z,3.63
2023-06-23T18:59:27.997Z,3.88
2023-06-23T19:01:56.142Z,3.90
2023-06-23T19:04:24.521Z,3.65
2023-06-23T19:06:54.831Z,4.00
2023-06-23T19:09:22.959Z,3.65
2023-06-23T19:11:50.915Z,3.85
2023-06-23T19:14:19.270Z,3.42
2023-06-23T19:16:47.403Z,3.97
2023-06-23T19:19:16.305Z,3.58
2023-06-23T19:21:45.123Z,4.05
2023-06-23T19:24:13.259Z,4.60
2023-06-23T19:26:41.252Z,3.92
2023-06-23T19:29:09.361Z,4.05
2023-06-23T19:31:37.437Z,4.57
2023-06-23T19:34:05.674Z,3.53
2023-06-23T19:36:33.688Z,3.55
2023-06-23T19:39:03.688Z,3.03
2023-06-23T19:41:31.908Z,3.17
2023-06-23T19:43:59.889Z,3.13
2023-06-23T19:46:27.915Z,2.40
2023-06-23T19:48:56.719Z,2.97
2023-06-23T19:51:25.658Z,3.67
2023-06-23T19:53:53.916Z,2.97
2023-06-23T19:56:22.904Z,3.20
2023-06-23T19:58:50.723Z,3.50
2023-06-23T20:01:19.920Z,4.50
2023-06-23T20:03:49.913Z,3.88
2023-06-23T20:06:21.754Z,4.55
2023-06-23T20:08:49.933Z,4.82
2023-06-23T20:11:21.098Z,4.70
2023-06-23T20:16:16.969Z,3.85
2023-06-23T20:18:45.531Z,4.68
2023-06-23T20:21:15.810Z,4.30
2023-06-23T20:23:46.448Z,4.93
2023-06-23T20:26:14.456Z,4.47
2023-06-23T20:28:42.865Z,4.03
2023-06-23T20:31:11.198Z,4.45
2023-06-23T20:33:40.635Z,4.80
2023-06-23T20:36:12.299Z,5.05
2023-06-23T20:38:41.455Z,4.30
2023-06-23T20:41:10.150Z,4.85
2023-06-23T20:43:38.175Z,4.05
2023-06-23T20:46:06.234Z,2.70
2023-06-23T20:48:40.876Z,4.15
2023-06-23T20:51:09.292Z,4.68
2023-06-23T20:53:37.312Z,4.22
2023-06-23T20:56:05.275Z,4.20
2023-06-23T20:58:33.070Z,3.83
2023-06-23T21:01:01.107Z,4.10
2023-06-23T21:03:29.793Z,3.70
2023-06-23T21:05:58.590Z,3.15
2023-06-23T21:08:27.293Z,4.18
2023-06-23T21:10:57.255Z,4.13
2023-06-23T21:13:26.480Z,3.58
2023-06-23T21:15:55.686Z,4.40
2023-06-23T21:18:23.765Z,4.20
2023-06-23T21:20:53.841Z,3.05
2023-06-23T21:23:22.355Z,3.40
2023-06-23T21:25:51.084Z,4.22
2023-06-23T21:28:19.813Z,4.15
2023-06-23T21:30:48.888Z,4.25
2023-06-23T21:33:19.846Z,4.65
2023-06-23T21:35:52.670Z,4.22
2023-06-23T21:38:21.784Z,3.17
2023-06-23T21:40:50.169Z,3.45
2023-06-23T21:43:18.748Z,3.97
2023-06-23T21:45:46.833Z,3.60
2023-06-23T21:48:18.442Z,3.40
2023-06-23T21:50:48.272Z,3.28
2023-06-23T21:53:17.192Z,3.60
2023-06-23T21:55:45.390Z,4.18
2023-06-23T21:58:16.658Z,3.30
2023-06-23T22:03:20.666Z,2.10
2023-06-23T22:05:50.618Z,1.80
2023-06-23T22:08:22.647Z,2.60
2023-06-23T22:10:52.964Z,1.85
2023-06-23T22:13:22.631Z,2.90
2023-06-23T22:15:50.972Z,2.60
2023-06-23T22:18:41.465Z,2.45
2023-06-23T22:21:08.924Z,2.20
2023-06-23T22:23:37.200Z,1.92
2023-06-23T22:26:07.245Z,1.98
2023-06-23T22:28:35.201Z,2.15
2023-06-23T22:31:07.169Z,1.92
2023-06-23T22:33:41.384Z,2.22
2023-06-23T22:36:15.810Z,2.40
2023-06-23T22:38:44.083Z,2.83
2023-06-23T22:41:13.209Z,2.97
2023-06-23T22:43:40.802Z,3.75
2023-06-23T22:46:08.807Z,3.20
2023-06-23T22:48:36.773Z,4.72
2023-06-23T22:51:05.005Z,2.55
2023-06-23T22:53:33.034Z,2.67
2023-06-23T22:56:00.885Z,2.70
2023-06-23T22:58:28.820Z,1.92
2023-06-23T23:00:57.213Z,2.08
2023-06-23T23:03:25.194Z,3.45
2023-06-23T23:05:53.954Z,2.47
2023-06-23T23:08:21.729Z,2.47
2023-06-23T23:10:50.022Z,1.92
2023-06-23T23:13:17.737Z,2.40
2023-06-23T23:15:45.771Z,2.55
2023-06-23T23:18:14.369Z,2.75
2023-06-23T23:20:44.529Z,3.00
2023-06-23T23:23:12.512Z,3.25
2023-06-23T23:25:42.993Z,2.80
2023-06-23T23:28:11.139Z,2.70
2023-06-23T23:30:39.058Z,2.53
2023-06-23T23:33:07.176Z,2.97
2023-06-23T23:35:40.832Z,2.90
2023-06-23T23:38:09.770Z,2.88
2023-06-23T23:40:38.141Z,3.03
2023-06-23T23:43:06.993Z,2.58
2023-06-23T23:45:34.824Z,3.00
2023-06-23T23:48:02.567Z,2.30
2023-06-23T23:50:30.186Z,2.47
2023-06-23T23:52:57.976Z,3.10
2023-06-23T23:55:26.126Z,2.80
2023-06-23T23:57:54.305Z,3.08
